Time;durP1;ratioP1;P1;durP2;ratioP2;P2;SDS_P1;SDS_P2;PMS_P1;PMS_P2;Temp;Humidity;BMP_temperature;BMP_pressure;BME280_temperature;BME280_humidity;BME280_pressure;Samples;Min_cycle;Max_cycle;Signal;HPM_P1;HPM_P2
2023/07/29 00:00:48;;;;;;;9.60;6.00;;;19.00;99.90;;;;;;5034420;28;20391;-74
2023/07/29 00:03:14;;;;;;;7.55;5.50;;;19.10;99.90;;;;;;5034519;28;20383;-74
2023/07/29 00:05:40;;;;;;;7.03;5.30;;;19.10;99.90;;;;;;5034869;28;20386;-72
2023/07/29 00:08:06;;;;;;;6.57;5.18;;;19.10;99.90;;;;;;5034478;28;20411;-73
2023/07/29 00:10:35;;;;;;;6.70;5.55;;;19.20;99.90;;;;;;5034562;28;20379;-72
2023/07/29 00:13:00;;;;;;;7.03;5.30;;;19.20;99.90;;;;;;5035459;28;20387;-73
2023/07/29 00:15:26;;;;;;;6.80;5.07;;;19.20;99.90;;;;;;5034581;28;20740;-73
2023/07/29 00:17:51;;;;;;;5.03;4.53;;;19.20;99.90;;;;;;5034591;28;20390;-74
2023/07/29 00:20:17;;;;;;;8.27;5.60;;;19.30;99.90;;;;;;5034502;28;20393;-74
2023/07/29 00:22:44;;;;;;;6.28;4.88;;;19.30;99.90;;;;;;5033745;28;20453;-73
2023/07/29 00:25:10;;;;;;;5.18;4.68;;;19.40;99.90;;;;;;5016698;28;20379;-73
2023/07/29 00:27:35;;;;;;;9.00;5.27;;;19.30;99.90;;;;;;5038737;28;20407;-74
2023/07/29 00:30:01;;;;;;;8.25;5.03;;;19.20;99.90;;;;;;5038330;28;20391;-73
2023/07/29 00:32:31;;;;;;;5.63;5.10;;;19.20;99.90;;;;;;5033975;28;20383;-73
2023/07/29 00:34:56;;;;;;;7.78;5.72;;;19.10;99.90;;;;;;5035073;28;20790;-74
2023/07/29 00:37:22;;;;;;;10.40;5.55;;;19.00;99.90;;;;;;5035872;28;20398;-74
2023/07/29 00:39:47;;;;;;;6.03;5.20;;;19.00;99.90;;;;;;5035875;28;20458;-74
2023/07/29 00:42:13;;;;;;;6.40;5.80;;;19.10;99.90;;;;;;5035531;28;20398;-74
2023/07/29 00:44:38;;;;;;;6.15;5.55;;;19.00;99.90;;;;;;5034429;28;20421;-73
2023/07/29 00:47:05;;;;;;;7.37;6.00;;;19.00;99.90;;;;;;5034331;28;20419;-74
2023/07/29 00:49:32;;;;;;;7.35;6.10;;;18.90;99.90;;;;;;5016956;28;20391;-74
2023/07/29 00:51:58;;;;;;;10.88;7.50;;;18.80;99.90;;;;;;5045753;28;20433;-73
2023/07/29 00:54:23;;;;;;;9.70;6.60;;;18.70;99.90;;;;;;5045892;28;20383;-73
2023/07/29 00:56:49;;;;;;;7.10;6.40;;;18.70;99.90;;;;;;5046709;28;20481;-73
2023/07/29 00:59:15;;;;;;;11.65;6.50;;;18.70;99.90;;;;;;5045632;28;20402;-73
2023/07/29 01:01:41;;;;;;;7.55;6.75;;;18.70;99.90;;;;;;5043011;28;20390;-74
2023/07/29 01:04:06;;;;;;;12.05;7.30;;;18.70;99.90;;;;;;5019871;28;20398;-73
2023/07/29 01:06:50;;;;;;;11.30;7.37;;;18.70;99.90;;;;;;5003229;28;20478;-73
2023/07/29 01:09:52;;;;;;;9.57;6.70;;;18.70;99.90;;;;;;5019668;28;20388;-75
2023/07/29 01:12:36;;;;;;;7.32;6.60;;;18.70;99.90;;;;;;5028159;28;20404;-73
2023/07/29 01:15:13;;;;;;;10.10;7.30;;;18.70;99.90;;;;;;5032383;28;20444;-73
2023/07/29 01:17:53;;;;;;;11.40;7.75;;;18.70;99.90;;;;;;5032955;28;20721;-73
2023/07/29 01:20:20;;;;;;;12.45;9.70;;;18.70;99.90;;;;;;5028370;28;20406;-74
2023/07/29 01:22:46;;;;;;;16.48;11.82;;;18.80;99.90;;;;;;5033076;28;20910;-73
2023/07/29 01:25:13;;;;;;;12.87;8.73;;;18.80;99.90;;;;;;5033948;28;20395;-74
2023/07/29 01:27:39;;;;;;;10.05;7.80;;;18.80;99.90;;;;;;5033378;28;20415;-74
2023/07/29 01:30:06;;;;;;;12.45;7.43;;;18.90;99.90;;;;;;5030857;28;20399;-73
2023/07/29 01:32:44;;;;;;;10.05;7.28;;;19.00;99.90;;;;;;5034199;28;20461;-73
2023/07/29 01:35:23;;;;;;;9.52;6.82;;;19.00;99.90;;;;;;5033267;28;20379;-75
2023/07/29 01:37:54;;;;;;;10.02;7.40;;;19.00;99.90;;;;;;5033005;28;20895;-74
2023/07/29 01:40:23;;;;;;;9.93;7.40;;;19.00;99.90;;;;;;5033461;28;20793;-73
2023/07/29 01:42:49;;;;;;;11.18;6.95;;;19.00;99.90;;;;;;5034057;28;20403;-74
2023/07/29 01:45:15;;;;;;;10.88;6.85;;;19.00;99.90;;;;;;5033886;28;20488;-73
2023/07/29 01:47:41;;;;;;;9.30;6.55;;;19.10;99.90;;;;;;5033262;28;20403;-74
2023/07/29 01:50:07;;;;;;;7.32;6.25;;;19.10;99.90;;;;;;5033307;28;20820;-74
2023/07/29 01:52:33;;;;;;;10.48;6.97;;;19.00;99.90;;;;;;5032707;28;20441;-74
2023/07/29 01:54:59;;;;;;;7.00;6.30;;;19.00;99.90;;;;;;5033165;28;20392;-74
2023/07/29 01:57:24;;;;;;;10.13;7.10;;;19.00;99.90;;;;;;5034659;28;20528;-73
2023/07/29 01:59:50;;;;;;;11.50;6.73;;;19.00;99.90;;;;;;5035393;28;20387;-73
2023/07/29 02:02:15;;;;;;;10.60;6.60;;;19.00;99.90;;;;;;5031708;28;20383;-74
2023/07/29 02:04:41;;;;;;;9.15;6.47;;;19.10;99.90;;;;;;5032410;28;20379;-74
2023/07/29 02:07:06;;;;;;;8.32;6.38;;;19.00;99.90;;;;;;5032783;28;20426;-74
2023/07/29 02:09:32;;;;;;;12.47;6.07;;;19.00;99.90;;;;;;5032379;28;20478;-74
2023/07/29 02:11:58;;;;;;;7.70;5.97;;;19.00;99.90;;;;;;5032198;28;20395;-74
2023/07/29 02:14:23;;;;;;;9.20;6.45;;;18.90;99.90;;;;;;5032242;28;20406;-74
2023/07/29 02:16:49;;;;;;;8.27;6.10;;;18.90;99.90;;;;;;5032187;28;20386;-74
2023/07/29 02:19:15;;;;;;;7.97;6.67;;;18.90;99.90;;;;;;5032166;28;20414;-74
2023/07/29 02:21:41;;;;;;;8.30;6.00;;;18.90;99.90;;;;;;5035063;28;20846;-74
2023/07/29 02:24:06;;;;;;;8.30;5.78;;;18.90;99.90;;;;;;5032887;28;20387;-74
2023/07/29 02:26:32;;;;;;;7.10;5.70;;;18.90;99.90;;;;;;5032504;28;20387;-75
2023/07/29 02:28:57;;;;;;;9.17;5.90;;;18.90;99.90;;;;;;5032149;28;20759;-74
2023/07/29 02:31:25;;;;;;;8.52;6.57;;;19.00;99.90;;;;;;5031499;28;20390;-74
2023/07/29 02:33:51;;;;;;;12.25;6.47;;;19.00;99.90;;;;;;5032127;28;20470;-74
2023/07/29 02:36:17;;;;;;;6.35;5.72;;;19.00;99.90;;;;;;5032669;28;20418;-74
2023/07/29 02:38:43;;;;;;;6.95;6.25;;;19.00;99.90;;;;;;5034019;28;20466;-74
2023/07/29 02:41:10;;;;;;;8.45;7.00;;;19.10;99.90;;;;;;5042336;28;20394;-74
2023/07/29 02:43:36;;;;;;;7.53;6.43;;;19.10;99.90;;;;;;5042097;28;20403;-74
2023/07/29 02:46:02;;;;;;;9.98;6.30;;;19.10;99.90;;;;;;5038490;28;20472;-74
2023/07/29 02:48:28;;;;;;;6.43;5.80;;;19.10;99.90;;;;;;5032060;28;20419;-73
2023/07/29 02:50:54;;;;;;;8.25;6.38;;;19.00;99.90;;;;;;5016411;28;20465;-74
2023/07/29 02:53:20;;;;;;;9.30;6.15;;;19.00;99.90;;;;;;5032106;28;20892;-73
2023/07/29 02:55:45;;;;;;;8.25;6.20;;;19.00;99.90;;;;;;5031348;28;20390;-74
2023/07/29 02:58:11;;;;;;;7.03;5.90;;;19.00;99.90;;;;;;5030994;28;20430;-74
2023/07/29 03:00:36;;;;;;;7.27;5.90;;;19.00;99.90;;;;;;5031217;28;20379;-74
2023/07/29 03:03:02;;;;;;;8.43;6.30;;;19.00;99.90;;;;;;5030829;28;20422;-73
2023/07/29 03:05:28;;;;;;;9.83;5.90;;;19.00;99.90;;;;;;5031010;28;20429;-73
2023/07/29 03:07:53;;;;;;;8.83;5.97;;;19.00;99.90;;;;;;5030734;28;20779;-73
2023/07/29 03:10:20;;;;;;;6.30;5.70;;;19.00;99.90;;;;;;5013311;28;20826;-73
2023/07/29 03:12:46;;;;;;;5.80;5.13;;;19.00;99.90;;;;;;5030967;28;20410;-73
2023/07/29 03:15:12;;;;;;;5.57;5.07;;;19.10;99.90;;;;;;5030176;28;20387;-74
2023/07/29 03:17:37;;;;;;;8.67;4.90;;;19.10;99.90;;;;;;5030797;28;20488;-73
2023/07/29 03:20:03;;;;;;;9.60;4.63;;;19.10;99.90;;;;;;5031224;28;20399;-73
2023/07/29 03:22:29;;;;;;;4.95;4.45;;;19.10;99.90;;;;;;5030835;28;20391;-73
2023/07/29 03:24:54;;;;;;;5.05;4.40;;;19.20;99.90;;;;;;5031131;28;20864;-73
2023/07/29 03:27:20;;;;;;;5.50;4.70;;;19.30;99.90;;;;;;5030602;28;20485;-73
2023/07/29 03:29:46;;;;;;;8.10;4.60;;;19.20;99.90;;;;;;5030994;28;20418;-73
2023/07/29 03:32:11;;;;;;;8.07;4.35;;;19.20;99.90;;;;;;5030759;28;20379;-73
2023/07/29 03:34:38;;;;;;;5.25;4.75;;;19.20;99.90;;;;;;5031306;28;20383;-74
2023/07/29 03:37:04;;;;;;;6.47;4.65;;;19.30;99.90;;;;;;5031756;28;20383;-73
2023/07/29 03:39:29;;;;;;;7.87;4.73;;;19.30;99.90;;;;;;5031054;28;20410;-74
2023/07/29 03:41:55;;;;;;;5.00;4.00;;;19.20;99.90;;;;;;5030803;28;20467;-73
2023/07/29 03:44:20;;;;;;;8.37;4.60;;;19.40;99.90;;;;;;5030669;28;20421;-73
2023/07/29 03:46:46;;;;;;;6.80;4.37;;;19.50;99.90;;;;;;5030502;28;20873;-74
2023/07/29 03:49:11;;;;;;;6.10;4.65;;;19.40;99.90;;;;;;5030731;28;20934;-74
2023/07/29 03:51:37;;;;;;;5.40;4.63;;;19.30;99.90;;;;;;5031145;28;20815;-73
2023/07/29 03:54:02;;;;;;;6.10;4.77;;;19.20;99.90;;;;;;5037091;28;20387;-74
2023/07/29 03:56:28;;;;;;;8.25;4.45;;;19.30;99.90;;;;;;5031182;28;20479;-73
2023/07/29 03:59:01;;;;;;;6.10;4.70;;;19.40;99.90;;;;;;5030671;28;20409;-73
2023/07/29 04:01:27;;;;;;;5.97;4.55;;;19.50;99.90;;;;;;5030343;28;20433;-73
2023/07/29 04:03:52;;;;;;;9.83;5.20;;;19.50;99.90;;;;;;5030560;28;20383;-74
2023/07/29 04:06:18;;;;;;;6.63;4.80;;;19.50;99.90;;;;;;5032295;28;20387;-74
2023/07/29 04:08:43;;;;;;;11.40;4.60;;;19.40;99.90;;;;;;5032075;28;20411;-74
2023/07/29 04:11:09;;;;;;;9.53;5.23;;;19.30;99.90;;;;;;5030407;28;20375;-74
2023/07/29 04:13:37;;;;;;;6.43;4.80;;;19.30;99.90;;;;;;5030576;28;20386;-74
2023/07/29 04:16:03;;;;;;;6.90;4.80;;;19.30;99.90;;;;;;5030162;28;20387;-74
2023/07/29 04:18:29;;;;;;;5.97;4.88;;;19.20;99.90;;;;;;5030063;28;20379;-74
2023/07/29 04:20:54;;;;;;;7.87;5.30;;;19.20;99.90;;;;;;5030070;28;20391;-73
2023/07/29 04:23:20;;;;;;;7.80;5.15;;;19.20;99.90;;;;;;5030478;28;20383;-74
2023/07/29 04:25:46;;;;;;;6.05;4.80;;;19.20;99.90;;;;;;5031540;28;20387;-74
2023/07/29 04:28:11;;;;;;;5.27;4.70;;;19.10;99.90;;;;;;5034003;28;20438;-74
2023/07/29 04:30:37;;;;;;;7.55;4.70;;;19.20;99.90;;;;;;5033948;28;20878;-73
2023/07/29 04:33:03;;;;;;;9.15;4.93;;;19.20;99.90;;;;;;5033820;28;20386;-73
2023/07/29 04:35:28;;;;;;;5.47;4.93;;;19.30;99.90;;;;;;5034209;28;20379;-74
2023/07/29 04:37:54;;;;;;;9.10;4.90;;;19.20;99.90;;;;;;5035908;28;20474;-74
2023/07/29 04:40:20;;;;;;;5.03;4.53;;;19.30;99.90;;;;;;5037987;28;20410;-74
2023/07/29 04:42:45;;;;;;;5.45;4.50;;;19.20;99.90;;;;;;5034247;28;20395;-74
2023/07/29 04:45:11;;;;;;;8.20;4.72;;;19.20;99.90;;;;;;5034268;28;20466;-74
2023/07/29 04:47:37;;;;;;;14.48;5.10;;;19.20;99.90;;;;;;5033984;28;20439;-73
2023/07/29 04:50:02;;;;;;;6.00;4.63;;;19.10;99.90;;;;;;5033688;28;20379;-74
2023/07/29 04:52:28;;;;;;;10.40;4.73;;;19.10;98.80;;;;;;5033352;28;20568;-73
2023/07/29 04:54:53;;;;;;;10.40;4.93;;;19.10;99.90;;;;;;5033412;28;20386;-73
2023/07/29 04:57:19;;;;;;;10.60;4.53;;;19.10;94.90;;;;;;5033436;28;20383;-73
2023/07/29 04:59:44;;;;;;;6.40;4.60;;;19.20;96.40;;;;;;5033381;28;20391;-75
2023/07/29 05:02:10;;;;;;;5.55;4.65;;;19.20;94.90;;;;;;5033571;28;20390;-74
2023/07/29 05:04:36;;;;;;;7.50;5.00;;;19.30;92.70;;;;;;5033739;28;20391;-74
2023/07/29 05:07:01;;;;;;;5.30;4.80;;;19.30;91.30;;;;;;5033758;28;20880;-74
2023/07/29 05:09:27;;;;;;;8.57;5.20;;;19.40;91.90;;;;;;5033274;28;20879;-74
2023/07/29 05:11:52;;;;;;;7.90;5.20;;;19.40;88.30;;;;;;5033748;28;20461;-74
2023/07/29 05:14:18;;;;;;;7.00;5.35;;;19.50;83.50;;;;;;5033433;28;20886;-74
2023/07/29 05:16:44;;;;;;;6.07;4.80;;;19.50;81.10;;;;;;5015704;28;20858;-74
2023/07/29 05:19:09;;;;;;;9.15;5.10;;;19.50;80.40;;;;;;5033262;28;20425;-74
2023/07/29 05:21:35;;;;;;;5.57;4.70;;;19.50;78.30;;;;;;5032975;28;20548;-74
2023/07/29 05:24:01;;;;;;;7.27;5.10;;;19.50;80.20;;;;;;5033150;28;20383;-74
2023/07/29 05:26:26;;;;;;;12.07;5.38;;;19.50;78.90;;;;;;5032845;28;20391;-73
2023/07/29 05:28:52;;;;;;;6.17;4.80;;;19.60;77.00;;;;;;5032975;28;20470;-73
2023/07/29 05:31:17;;;;;;;7.40;5.23;;;19.60;76.80;;;;;;5032806;28;20418;-74
2023/07/29 05:33:43;;;;;;;7.13;5.10;;;19.60;75.50;;;;;;5032742;28;20479;-74
2023/07/29 05:36:09;;;;;;;7.60;5.93;;;19.60;73.10;;;;;;5032631;28;20883;-74
2023/07/29 05:38:34;;;;;;;5.90;5.00;;;19.60;74.00;;;;;;5031630;28;20399;-74
2023/07/29 05:41:00;;;;;;;7.90;5.65;;;19.60;73.80;;;;;;5032487;28;20867;-74
2023/07/29 05:43:26;;;;;;;12.40;5.15;;;19.50;76.40;;;;;;5032380;28;20462;-74
2023/07/29 05:45:52;;;;;;;7.90;5.10;;;19.50;78.10;;;;;;5032608;28;20482;-73
2023/07/29 05:48:19;;;;;;;8.65;5.40;;;19.50;78.70;;;;;;5032236;28;20403;-74
2023/07/29 05:50:44;;;;;;;7.78;5.38;;;19.50;79.00;;;;;;5032453;28;20387;-74
2023/07/29 05:53:10;;;;;;;10.20;5.00;;;19.70;78.20;;;;;;5032162;28;20383;-74
2023/07/29 05:55:35;;;;;;;7.65;4.97;;;19.60;74.20;;;;;;5032108;28;20472;-74
2023/07/29 05:58:01;;;;;;;8.80;4.90;;;19.70;73.00;;;;;;5032137;28;20398;-74
2023/07/29 06:00:26;;;;;;;6.55;4.40;;;19.70;71.40;;;;;;5032101;28;20406;-74
2023/07/29 06:02:52;;;;;;;8.30;4.47;;;19.70;70.20;;;;;;5031805;28;20721;-74
2023/07/29 06:05:17;;;;;;;6.30;4.07;;;19.70;69.30;;;;;;5033910;28;20656;-74
2023/07/29 06:07:44;;;;;;;5.93;3.70;;;19.70;68.10;;;;;;5032172;28;20424;-74
2023/07/29 06:10:13;;;;;;;6.90;3.33;;;19.80;60.70;;;;;;5032099;28;20391;-74
2023/07/29 06:12:38;;;;;;;4.72;3.70;;;19.80;62.80;;;;;;5031292;28;20796;-74
2023/07/29 06:15:04;;;;;;;9.13;3.60;;;19.90;62.30;;;;;;5032098;28;20390;-74
2023/07/29 06:17:30;;;;;;;4.65;3.38;;;19.90;59.90;;;;;;5032941;28;20393;-74
2023/07/29 06:19:56;;;;;;;5.20;3.30;;;19.80;62.90;;;;;;5034489;28;20484;-74
2023/07/29 06:22:21;;;;;;;3.80;3.30;;;20.00;61.90;;;;;;5032721;28;20497;-73
2023/07/29 06:24:47;;;;;;;4.23;3.27;;;20.10;60.70;;;;;;5035329;28;20391;-73
2023/07/29 06:27:12;;;;;;;6.90;4.18;;;20.10;59.60;;;;;;5035969;28;20480;-74
2023/07/29 06:29:38;;;;;;;9.30;4.00;;;20.10;57.90;;;;;;5016049;28;20397;-73
2023/07/29 06:32:04;;;;;;;8.45;3.60;;;20.00;60.20;;;;;;5034435;28;20383;-73
2023/07/29 06:34:29;;;;;;;4.30;3.30;;;20.10;57.00;;;;;;5016990;28;20879;-73
2023/07/29 06:36:55;;;;;;;5.10;3.15;;;20.20;55.70;;;;;;5032173;28;20379;-74
2023/07/29 06:39:20;;;;;;;5.47;3.10;;;20.30;54.40;;;;;;5030942;28;20391;-74
2023/07/29 06:41:46;;;;;;;4.07;2.70;;;20.40;53.20;;;;;;5030855;28;20482;-74
2023/07/29 06:44:11;;;;;;;2.70;2.50;;;20.40;49.60;;;;;;5030982;28;20437;-74
2023/07/29 06:46:37;;;;;;;4.60;2.30;;;20.20;47.90;;;;;;5030873;28;20387;-74
2023/07/29 06:49:03;;;;;;;4.75;2.47;;;20.10;49.60;;;;;;5030799;28;20510;-74
2023/07/29 06:51:34;;;;;;;3.00;2.10;;;20.20;49.90;;;;;;5030956;28;20375;-74
2023/07/29 06:54:00;;;;;;;3.60;2.20;;;20.20;48.40;;;;;;5031147;28;20437;-73
2023/07/29 06:56:25;;;;;;;3.47;1.93;;;20.10;49.00;;;;;;5031045;28;20387;-72
2023/07/29 06:58:51;;;;;;;4.00;2.47;;;20.00;47.90;;;;;;5030952;28;20422;-74
2023/07/29 07:01:17;;;;;;;3.22;2.00;;;19.90;48.90;;;;;;5030492;28;20395;-74
2023/07/29 07:03:42;;;;;;;2.60;1.90;;;20.00;48.90;;;;;;5030725;28;20395;-74
2023/07/29 07:06:08;;;;;;;2.20;2.00;;;20.00;49.30;;;;;;5030875;28;20387;-74
2023/07/29 07:08:34;;;;;;;2.30;2.00;;;20.20;48.70;;;;;;5030938;28;20926;-74
2023/07/29 07:10:59;;;;;;;2.78;1.90;;;20.30;45.60;;;;;;5013104;28;20390;-74
2023/07/29 07:13:25;;;;;;;3.30;1.90;;;20.20;46.80;;;;;;5030462;28;20517;-74
2023/07/29 07:15:50;;;;;;;2.20;2.00;;;20.40;47.30;;;;;;5030616;28;20402;-74
2023/07/29 07:18:16;;;;;;;2.70;2.50;;;20.40;49.70;;;;;;5031136;28;20390;-74
2023/07/29 07:20:41;;;;;;;3.13;2.27;;;20.50;48.00;;;;;;5031892;28;20422;-74
2023/07/29 07:23:11;;;;;;;3.80;2.00;;;20.70;46.90;;;;;;5033581;28;20807;-73
2023/07/29 07:25:36;;;;;;;6.05;2.40;;;20.80;44.60;;;;;;5031387;28;20938;-72
2023/07/29 07:28:02;;;;;;;2.47;2.20;;;21.00;44.10;;;;;;5030252;28;20413;-73
2023/07/29 07:30:28;;;;;;;3.65;1.92;;;21.10;43.70;;;;;;5030465;28;20414;-72
2023/07/29 07:32:53;;;;;;;2.10;2.00;;;21.20;43.50;;;;;;5030834;28;20445;-72
2023/07/29 07:35:19;;;;;;;6.93;2.10;;;21.40;41.50;;;;;;5031078;28;20444;-74
2023/07/29 07:37:44;;;;;;;3.30;1.90;;;21.60;41.10;;;;;;5033091;28;20383;-74
2023/07/29 07:40:11;;;;;;;3.00;2.60;;;21.70;40.40;;;;;;5031431;28;20507;-73
2023/07/29 07:42:36;;;;;;;2.70;2.00;;;21.80;41.10;;;;;;5031071;28;20436;-74
2023/07/29 07:45:02;;;;;;;4.07;2.25;;;21.80;39.90;;;;;;5013013;28;20403;-73
2023/07/29 07:47:28;;;;;;;3.25;2.47;;;21.70;40.80;;;;;;5030791;28;20458;-74
2023/07/29 07:49:53;;;;;;;3.30;2.47;;;21.60;41.30;;;;;;5030355;28;20752;-73
2023/07/29 07:52:19;;;;;;;2.28;2.00;;;21.60;40.60;;;;;;5031424;28;20899;-74
2023/07/29 07:54:53;;;;;;;2.30;2.10;;;21.50;39.90;;;;;;5031576;28;20399;-74
2023/07/29 07:57:21;;;;;;;4.05;2.20;;;21.40;39.90;;;;;;5030657;28;20400;-74
2023/07/29 07:59:46;;;;;;;2.65;2.08;;;21.40;39.70;;;;;;5030344;28;20437;-73
2023/07/29 08:02:12;;;;;;;2.10;1.73;;;21.30;39.50;;;;;;5034725;28;20864;-73
2023/07/29 08:04:37;;;;;;;2.13;1.55;;;21.20;39.90;;;;;;5035841;28;20391;-73
2023/07/29 08:07:03;;;;;;;2.90;1.80;;;21.40;38.80;;;;;;5034731;28;20429;-73
2023/07/29 08:09:29;;;;;;;4.10;2.22;;;21.70;38.90;;;;;;5035044;28;20418;-73
2023/07/29 08:11:57;;;;;;;3.25;1.70;;;22.00;36.90;;;;;;5034668;28;20452;-74
2023/07/29 08:14:23;;;;;;;3.20;1.60;;;22.40;36.20;;;;;;5035053;28;20474;-74
2023/07/29 08:16:48;;;;;;;4.43;1.92;;;22.60;34.20;;;;;;5016867;28;20535;-73
2023/07/29 08:19:14;;;;;;;4.93;1.83;;;22.50;34.30;;;;;;5017021;28;20482;-73
2023/07/29 08:21:43;;;;;;;4.47;1.50;;;22.40;33.60;;;;;;5035129;28;20824;-73
2023/07/29 08:24:08;;;;;;;4.18;1.95;;;22.30;34.50;;;;;;5017373;28;20803;-73
2023/07/29 08:26:34;;;;;;;4.70;1.40;;;22.30;34.80;;;;;;5018331;28;20806;-73
2023/07/29 08:28:59;;;;;;;3.90;1.67;;;22.40;33.90;;;;;;5035542;28;20402;-73
2023/07/29 08:31:25;;;;;;;1.42;1.33;;;22.50;33.30;;;;;;5035247;28;20387;-73
2023/07/29 08:33:51;;;;;;;3.07;1.70;;;22.70;32.60;;;;;;5035305;28;20883;-73
2023/07/29 08:36:19;;;;;;;2.30;1.38;;;22.80;32.70;;;;;;5017220;28;20911;-73
2023/07/29 08:38:45;;;;;;;2.03;1.40;;;22.70;32.10;;;;;;5035122;28;20391;-74
2023/07/29 08:41:16;;;;;;;2.03;1.40;;;22.60;31.80;;;;;;5034493;28;20442;-73
2023/07/29 08:44:04;;;;;;;4.00;1.40;;;22.60;31.50;;;;;;5034138;28;20441;-73
2023/07/29 08:46:30;;;;;;;2.73;1.40;;;22.50;32.60;;;;;;5033719;28;20538;-73
2023/07/29 08:48:56;;;;;;;5.10;1.30;;;22.60;32.30;;;;;;5033454;28;20498;-75
2023/07/29 08:51:23;;;;;;;4.93;1.60;;;22.60;31.90;;;;;;5032994;28;20471;-74
2023/07/29 08:53:49;;;;;;;2.15;1.27;;;22.80;31.00;;;;;;5015128;28;20873;-74
2023/07/29 08:56:16;;;;;;;2.00;1.30;;;22.80;29.90;;;;;;5033547;28;20387;-74
2023/07/29 08:58:42;;;;;;;2.58;1.33;;;22.70;31.30;;;;;;5015599;28;20395;-74
2023/07/29 09:01:08;;;;;;;2.10;1.50;;;22.70;31.10;;;;;;5032978;28;20394;-74
2023/07/29 09:03:34;;;;;;;2.00;1.40;;;22.90;30.40;;;;;;5033137;28;20947;-74
2023/07/29 09:06:01;;;;;;;3.35;1.30;;;23.10;29.60;;;;;;5033053;28;20692;-74
2023/07/29 09:08:27;;;;;;;2.80;1.40;;;23.50;29.90;;;;;;5032694;28;20438;-73
2023/07/29 09:10:54;;;;;;;2.20;1.27;;;23.50;28.20;;;;;;5032863;28;20386;-74
2023/07/29 09:13:20;;;;;;;1.60;1.50;;;23.40;29.10;;;;;;5031570;28;20407;-74
2023/07/29 09:15:46;;;;;;;3.10;1.70;;;23.20;30.20;;;;;;5033010;28;20410;-74
2023/07/29 09:18:20;;;;;;;1.70;1.40;;;23.10;30.40;;;;;;5033035;28;20383;-73
2023/07/29 09:20:48;;;;;;;2.63;1.30;;;22.90;30.90;;;;;;5033198;28;20480;-73
2023/07/29 09:23:13;;;;;;;1.70;1.33;;;23.00;30.90;;;;;;5033308;28;20771;-73
2023/07/29 09:25:39;;;;;;;3.53;1.30;;;23.10;30.60;;;;;;5033787;28;20398;-74
2023/07/29 09:28:09;;;;;;;1.50;1.40;;;23.00;30.60;;;;;;5033055;28;20402;-73
2023/07/29 09:30:35;;;;;;;1.33;1.23;;;22.80;31.70;;;;;;5033789;28;20415;-73
2023/07/29 09:33:01;;;;;;;3.03;1.40;;;22.50;33.10;;;;;;5032884;28;20419;-73
2023/07/29 09:35:30;;;;;;;1.53;1.40;;;22.40;33.10;;;;;;5032394;28;20467;-74
2023/07/29 09:37:55;;;;;;;2.00;1.30;;;22.30;33.50;;;;;;5032587;28;20430;-74
2023/07/29 09:40:21;;;;;;;2.30;1.60;;;22.50;33.00;;;;;;5033026;28;20819;-73
2023/07/29 09:42:54;;;;;;;1.60;1.25;;;22.60;32.30;;;;;;5033093;28;20426;-73
2023/07/29 09:45:22;;;;;;;2.90;1.40;;;22.60;32.90;;;;;;5033395;28;20744;-73
2023/07/29 09:47:48;;;;;;;2.10;1.50;;;22.70;32.60;;;;;;5033545;28;20545;-74
2023/07/29 09:50:14;;;;;;;1.80;1.50;;;22.70;32.30;;;;;;5035071;28;20388;-74
2023/07/29 09:52:39;;;;;;;2.40;1.70;;;22.80;32.10;;;;;;5033853;28;20391;-73
2023/07/29 09:55:06;;;;;;;5.28;1.40;;;23.10;31.70;;;;;;5033570;28;20747;-73
2023/07/29 09:57:32;;;;;;;3.03;1.30;;;23.50;30.60;;;;;;5034483;28;20383;-73
2023/07/29 09:59:58;;;;;;;2.20;1.58;;;23.60;30.10;;;;;;5034770;28;20443;-74
2023/07/29 10:02:25;;;;;;;3.45;1.60;;;23.50;30.30;;;;;;5032927;28;20942;-74
2023/07/29 10:04:52;;;;;;;2.80;1.70;;;23.40;30.80;;;;;;5032496;28;20835;-73
2023/07/29 10:07:18;;;;;;;2.08;1.73;;;23.50;30.60;;;;;;5014159;28;20414;-73
2023/07/29 10:09:45;;;;;;;4.20;1.63;;;23.80;29.60;;;;;;5032372;28;20379;-74
2023/07/29 10:12:11;;;;;;;2.53;1.55;;;24.30;27.70;;;;;;5014574;28;20462;-74
2023/07/29 10:14:38;;;;;;;4.90;1.30;;;24.60;26.40;;;;;;5032817;28;20426;-74
2023/07/29 10:17:05;;;;;;;4.03;1.60;;;24.70;26.50;;;;;;5032300;28;20410;-73
2023/07/29 10:19:31;;;;;;;2.90;1.50;;;24.80;24.70;;;;;;5031767;28;20430;-74
2023/07/29 10:22:01;;;;;;;7.10;1.50;;;25.10;23.40;;;;;;5031653;28;20395;-73
2023/07/29 10:24:31;;;;;;;1.85;1.42;;;25.40;24.10;;;;;;5014118;28;20395;-73
2023/07/29 10:27:01;;;;;;;4.28;1.80;;;25.60;23.80;;;;;;5031230;28;20418;-74
2023/07/29 10:29:32;;;;;;;5.40;1.77;;;25.80;22.00;;;;;;5031753;28;20394;-73
2023/07/29 10:32:03;;;;;;;2.03;1.42;;;25.70;21.50;;;;;;5031641;28;20391;-73
2023/07/29 10:34:31;;;;;;;4.30;1.70;;;25.50;22.50;;;;;;5034998;28;20417;-73
2023/07/29 10:36:57;;;;;;;3.50;1.40;;;25.70;22.30;;;;;;5042172;28;20740;-74
2023/07/29 10:39:25;;;;;;;2.70;1.50;;;25.50;22.80;;;;;;5046371;28;20383;-74
2023/07/29 10:42:00;;;;;;;2.15;1.50;;;25.50;22.90;;;;;;5037061;28;20375;-74
2023/07/29 10:44:42;;;;;;;4.20;1.60;;;25.60;22.80;;;;;;5031182;28;20445;-74
2023/07/29 10:47:16;;;;;;;2.72;1.60;;;25.90;23.10;;;;;;5031081;28;20395;-74
2023/07/29 10:49:47;;;;;;;1.80;1.50;;;26.20;21.70;;;;;;5031488;28;20383;-74
2023/07/29 10:52:28;;;;;;;4.30;1.40;;;26.50;20.40;;;;;;5031289;28;20387;-74
2023/07/29 10:54:54;;;;;;;2.60;1.80;;;26.10;20.50;;;;;;5031074;28;20387;-74
2023/07/29 10:57:36;;;;;;;1.60;1.50;;;25.80;21.60;;;;;;5030871;28;20386;-74
2023/07/29 11:00:04;;;;;;;1.95;1.55;;;25.80;21.30;;;;;;5011387;28;20650;-74
2023/07/29 11:02:30;;;;;;;3.10;1.60;;;25.90;22.00;;;;;;5028736;28;20870;-74
2023/07/29 11:04:56;;;;;;;1.60;1.30;;;26.00;22.20;;;;;;5030969;28;20446;-73
2023/07/29 11:07:26;;;;;;;2.30;1.30;;;26.10;21.00;;;;;;5029849;28;20391;-74
2023/07/29 11:09:57;;;;;;;2.05;1.60;;;25.90;20.80;;;;;;5030840;28;20825;-74
2023/07/29 11:12:51;;;;;;;3.00;1.90;;;25.60;22.30;;;;;;5030590;28;20387;-75
2023/07/29 11:15:20;;;;;;;1.92;1.60;;;25.40;22.40;;;;;;5029587;28;20869;-73
2023/07/29 11:17:59;;;;;;;3.40;1.70;;;25.40;22.90;;;;;;5022084;28;20423;-73
2023/07/29 11:20:26;;;;;;;3.80;1.60;;;25.30;23.10;;;;;;5011746;28;20396;-73
2023/07/29 11:22:57;;;;;;;2.80;1.60;;;24.90;24.20;;;;;;5029837;28;20390;-73
2023/07/29 11:25:24;;;;;;;3.08;1.65;;;24.70;24.40;;;;;;5034270;28;20390;-73
2023/07/29 11:27:52;;;;;;;3.10;1.77;;;24.30;25.10;;;;;;5033471;28;20468;-75
2023/07/29 11:30:18;;;;;;;2.33;1.70;;;24.10;26.10;;;;;;5017946;28;20421;-72
2023/07/29 11:32:45;;;;;;;2.30;1.73;;;24.20;25.50;;;;;;5033134;28;20379;-72
2023/07/29 11:35:14;;;;;;;6.67;1.53;;;24.70;24.90;;;;;;5030980;28;20887;-73
2023/07/29 11:37:41;;;;;;;2.90;1.87;;;25.30;22.90;;;;;;5031519;28;20436;-73
2023/07/29 11:40:11;;;;;;;2.40;1.50;;;25.60;22.10;;;;;;5030939;28;20379;-73
2023/07/29 11:42:38;;;;;;;3.25;1.40;;;25.50;22.50;;;;;;5030144;28;20387;-73
2023/07/29 11:45:06;;;;;;;2.00;1.23;;;25.40;22.40;;;;;;5030537;28;20478;-73
2023/07/29 11:47:35;;;;;;;3.97;1.90;;;25.00;22.90;;;;;;5029554;28;20425;-73
2023/07/29 11:50:01;;;;;;;3.28;1.90;;;24.70;24.30;;;;;;5024740;28;20491;-73
2023/07/29 11:52:28;;;;;;;2.88;2.15;;;24.60;25.30;;;;;;5013692;28;20407;-73
2023/07/29 11:54:53;;;;;;;3.00;1.85;;;24.60;26.20;;;;;;5021251;28;20409;-74
2023/07/29 11:57:20;;;;;;;2.08;1.88;;;24.60;26.50;;;;;;5030067;28;20383;-72
2023/07/29 11:59:46;;;;;;;2.00;1.80;;;24.90;25.90;;;;;;5029990;28;20441;-72
2023/07/29 12:02:17;;;;;;;2.10;1.73;;;25.00;25.70;;;;;;5029774;28;20387;-72
2023/07/29 12:04:44;;;;;;;3.60;2.00;;;25.10;24.50;;;;;;5029823;28;20454;-71
2023/07/29 12:07:10;;;;;;;3.13;1.70;;;25.20;23.90;;;;;;5010041;28;20428;-73
2023/07/29 12:09:37;;;;;;;6.25;2.00;;;25.30;24.40;;;;;;5017007;28;20864;-73
2023/07/29 12:12:04;;;;;;;3.90;1.90;;;25.80;23.30;;;;;;5017839;28;20396;-72
2023/07/29 12:14:30;;;;;;;1.65;1.55;;;26.10;22.10;;;;;;5021011;28;20417;-72
2023/07/29 12:16:56;;;;;;;2.47;1.90;;;26.20;22.10;;;;;;5024689;28;20403;-73
2023/07/29 12:19:22;;;;;;;4.00;1.90;;;26.40;21.20;;;;;;5025651;28;20395;-75
2023/07/29 12:21:48;;;;;;;4.10;2.00;;;26.40;20.20;;;;;;5019424;28;20494;-73
2023/07/29 12:24:14;;;;;;;2.33;1.85;;;26.50;21.00;;;;;;5013834;28;20454;-73
2023/07/29 12:26:41;;;;;;;4.50;2.08;;;26.80;20.10;;;;;;5029370;28;20473;-73
2023/07/29 12:29:19;;;;;;;2.95;2.30;;;27.30;20.10;;;;;;5020294;28;20419;-73
2023/07/29 12:31:45;;;;;;;3.58;2.00;;;27.50;18.40;;;;;;5009640;28;20381;-73
2023/07/29 12:34:21;;;;;;;6.07;1.70;;;27.80;17.50;;;;;;5020283;28;20750;-72
2023/07/29 12:36:48;;;;;;;2.17;1.70;;;27.60;18.20;;;;;;5010202;28;20401;-73
2023/07/29 12:39:18;;;;;;;2.78;2.00;;;27.50;18.30;;;;;;5025964;28;20398;-73
2023/07/29 12:41:43;;;;;;;2.80;1.70;;;27.30;18.40;;;;;;5029536;28;20489;-73
2023/07/29 12:44:09;;;;;;;3.00;2.00;;;26.90;18.50;;;;;;5029628;28;20442;-73